sensor_id;sensor_type;location;lat;lon;timestamp;pressure;altitude;pressure_sealevel;temperature;humidity
929;BME280;451;47.988;7.842;2023-02-19T00:06:10;99252.97;;;12.12;86.24
929;BME280;451;47.988;7.842;2023-02-19T00:15:14;99243.09;;;12.06;85.57
929;BME280;451;47.988;7.842;2023-02-19T00:24:18;99234.66;;;11.86;85.65
929;BME280;451;47.988;7.842;2023-02-19T00:33:23;99249.13;;;11.90;86.35
929;BME280;451;47.988;7.842;2023-02-19T00:42:26;99241.13;;;11.66;87.72
929;BME280;451;47.988;7.842;2023-02-19T00:51:32;99117.53;;;10.97;87.92
929;BME280;451;47.988;7.842;2023-02-19T01:00:35;99223.78;;;11.55;88.87
929;BME280;451;47.988;7.842;2023-02-19T01:09:40;99237.31;;;11.60;88.24
929;BME280;451;47.988;7.842;2023-02-19T01:18:43;99219.41;;;11.72;86.51
929;BME280;451;47.988;7.842;2023-02-19T01:27:48;99211.16;;;11.67;85.23
929;BME280;451;47.988;7.842;2023-02-19T01:36:52;99164.84;;;11.56;83.94
929;BME280;451;47.988;7.842;2023-02-19T01:45:56;99189.69;;;11.80;84.49
929;BME280;451;47.988;7.842;2023-02-19T01:55:02;99202.47;;;11.75;83.18
929;BME280;451;47.988;7.842;2023-02-19T02:04:09;99232.06;;;11.68;83.99
929;BME280;451;47.988;7.842;2023-02-19T02:13:13;99212.13;;;11.66;84.43
929;BME280;451;47.988;7.842;2023-02-19T02:22:22;99230.38;;;11.59;86.05
929;BME280;451;47.988;7.842;2023-02-19T02:31:32;99210.19;;;11.34;87.82
929;BME280;451;47.988;7.842;2023-02-19T02:40:38;99166.13;;;11.10;87.75
929;BME280;451;47.988;7.842;2023-02-19T02:49:46;99228.41;;;11.27;88.03
929;BME280;451;47.988;7.842;2023-02-19T02:59:09;99232.97;;;11.25;87.95
929;BME280;451;47.988;7.842;2023-02-19T03:08:16;99203.31;;;11.15;93.40
929;BME280;451;47.988;7.842;2023-02-19T03:17:27;99202.44;;;11.07;96.41
929;BME280;451;47.988;7.842;2023-02-19T03:26:53;99167.25;;;11.08;93.11
929;BME280;451;47.988;7.842;2023-02-19T03:36:01;99219.19;;;11.23;89.96
929;BME280;451;47.988;7.842;2023-02-19T03:45:26;99210.81;;;11.28;89.47
929;BME280;451;47.988;7.842;2023-02-19T03:54:34;99202.03;;;11.19;87.95
929;BME280;451;47.988;7.842;2023-02-19T04:03:44;99222.56;;;11.42;87.38
929;BME280;451;47.988;7.842;2023-02-19T04:12:52;99228.81;;;11.41;87.71
929;BME280;451;47.988;7.842;2023-02-19T04:21:59;99199.56;;;11.18;87.75
929;BME280;451;47.988;7.842;2023-02-19T04:31:04;99208.31;;;11.26;89.07
929;BME280;451;47.988;7.842;2023-02-19T04:40:09;99204.22;;;11.24;88.23
929;BME280;451;47.988;7.842;2023-02-19T04:49:12;99208.03;;;11.04;90.21
929;BME280;451;47.988;7.842;2023-02-19T04:58:17;99217.81;;;10.93;90.56
929;BME280;451;47.988;7.842;2023-02-19T05:07:20;99253.31;;;10.89;91.27
929;BME280;451;47.988;7.842;2023-02-19T05:16:24;99221.72;;;10.89;91.77
929;BME280;451;47.988;7.842;2023-02-19T05:25:27;99287.41;;;10.81;92.52
929;BME280;451;47.988;7.842;2023-02-19T05:34:32;99207.22;;;10.42;93.31
929;BME280;451;47.988;7.842;2023-02-19T05:43:36;98942.44;;;8.41;94.81
929;BME280;451;47.988;7.842;2023-02-19T05:52:46;99223.13;;;10.23;95.76
929;BME280;451;47.988;7.842;2023-02-19T06:01:51;99363.66;;;10.46;97.98
929;BME280;451;47.988;7.842;2023-02-19T06:10:59;99408.47;;;10.54;97.31
929;BME280;451;47.988;7.842;2023-02-19T06:20:02;99277.00;;;10.36;99.44
929;BME280;451;47.988;7.842;2023-02-19T06:29:07;99108.16;;;9.26;97.68
929;BME280;451;47.988;7.842;2023-02-19T06:38:10;99145.28;;;8.95;96.70
929;BME280;451;47.988;7.842;2023-02-19T06:47:23;99174.66;;;9.90;96.73
929;BME280;451;47.988;7.842;2023-02-19T06:56:28;99315.16;;;10.58;96.91
929;BME280;451;47.988;7.842;2023-02-19T07:05:33;99363.91;;;10.70;96.57
929;BME280;451;47.988;7.842;2023-02-19T07:14:36;99207.00;;;9.90;96.22
929;BME280;451;47.988;7.842;2023-02-19T07:23:42;99387.19;;;10.93;97.17
929;BME280;451;47.988;7.842;2023-02-19T07:32:45;99238.78;;;10.15;96.22
929;BME280;451;47.988;7.842;2023-02-19T07:41:49;99412.72;;;11.36;93.29
929;BME280;451;47.988;7.842;2023-02-19T07:51:02;99507.88;;;11.41;93.10
929;BME280;451;47.988;7.842;2023-02-19T08:00:08;99447.66;;;11.63;91.14
929;BME280;451;47.988;7.842;2023-02-19T08:09:14;99479.66;;;12.12;89.05
929;BME280;451;47.988;7.842;2023-02-19T08:18:20;99476.25;;;11.94;91.17
929;BME280;451;47.988;7.842;2023-02-19T08:27:23;99482.50;;;11.57;94.22
929;BME280;451;47.988;7.842;2023-02-19T08:36:28;99477.63;;;11.27;96.75
929;BME280;451;47.988;7.842;2023-02-19T08:45:31;99472.94;;;11.03;98.10
929;BME280;451;47.988;7.842;2023-02-19T08:54:37;99488.94;;;11.55;96.71
929;BME280;451;47.988;7.842;2023-02-19T09:03:40;99448.53;;;11.46;93.93
929;BME280;451;47.988;7.842;2023-02-19T09:12:45;99502.22;;;11.71;93.56
929;BME280;451;47.988;7.842;2023-02-19T09:21:48;99500.28;;;11.55;94.59
929;BME280;451;47.988;7.842;2023-02-19T09:30:52;99505.84;;;11.70;92.69
929;BME280;451;47.988;7.842;2023-02-19T09:39:55;99497.19;;;12.47;88.89
929;BME280;451;47.988;7.842;2023-02-19T09:49:02;99477.91;;;12.46;88.11
929;BME280;451;47.988;7.842;2023-02-19T09:58:16;99482.63;;;12.69;85.95
929;BME280;451;47.988;7.842;2023-02-19T10:07:24;99468.63;;;12.76;82.77
929;BME280;451;47.988;7.842;2023-02-19T10:16:28;99481.53;;;13.46;77.14
929;BME280;451;47.988;7.842;2023-02-19T10:25:33;99492.13;;;13.62;77.02
929;BME280;451;47.988;7.842;2023-02-19T10:34:37;99505.50;;;13.68;72.84
929;BME280;451;47.988;7.842;2023-02-19T10:43:44;99516.19;;;13.35;73.38
929;BME280;451;47.988;7.842;2023-02-19T10:52:54;99484.53;;;12.92;71.91
929;BME280;451;47.988;7.842;2023-02-19T11:02:01;99532.91;;;13.59;69.91
929;BME280;451;47.988;7.842;2023-02-19T11:11:05;99535.25;;;13.79;68.92
929;BME280;451;47.988;7.842;2023-02-19T11:20:15;99536.56;;;14.15;67.82
929;BME280;451;47.988;7.842;2023-02-19T11:29:20;99526.81;;;13.99;67.40
929;BME280;451;47.988;7.842;2023-02-19T11:38:26;99531.44;;;14.38;66.30
929;BME280;451;47.988;7.842;2023-02-19T11:47:44;99515.25;;;13.76;67.36
929;BME280;451;47.988;7.842;2023-02-19T11:57:02;99499.09;;;13.79;67.79
929;BME280;451;47.988;7.842;2023-02-19T12:06:17;99497.41;;;14.10;67.10
929;BME280;451;47.988;7.842;2023-02-19T12:15:39;99414.19;;;13.66;59.47
929;BME280;451;47.988;7.842;2023-02-19T12:25:06;99500.69;;;14.29;59.37
929;BME280;451;47.988;7.842;2023-02-19T12:34:29;99473.56;;;14.27;58.36
929;BME280;451;47.988;7.842;2023-02-19T12:43:34;99515.34;;;15.11;59.58
929;BME280;451;47.988;7.842;2023-02-19T12:52:42;99497.84;;;15.24;57.95
929;BME280;451;47.988;7.842;2023-02-19T13:01:51;99492.22;;;14.49;58.14
929;BME280;451;47.988;7.842;2023-02-19T13:11:00;99489.44;;;14.27;58.29
929;BME280;451;47.988;7.842;2023-02-19T13:29:26;99486.38;;;15.63;54.06
929;BME280;451;47.988;7.842;2023-02-19T13:38:37;99477.16;;;14.50;55.96
929;BME280;451;47.988;7.842;2023-02-19T13:47:58;99479.19;;;14.48;56.71
929;BME280;451;47.988;7.842;2023-02-19T13:57:26;99477.88;;;14.28;57.73
929;BME280;451;47.988;7.842;2023-02-19T14:16:28;99486.16;;;14.00;57.89
929;BME280;451;47.988;7.842;2023-02-19T14:25:42;99472.94;;;13.44;59.52
929;BME280;451;47.988;7.842;2023-02-19T14:34:46;99487.53;;;13.80;58.21
929;BME280;451;47.988;7.842;2023-02-19T14:43:52;99480.56;;;13.55;59.05
929;BME280;451;47.988;7.842;2023-02-19T14:53:00;99505.66;;;13.51;59.57
929;BME280;451;47.988;7.842;2023-02-19T15:02:14;99515.91;;;13.04;60.75
929;BME280;451;47.988;7.842;2023-02-19T15:11:21;99510.88;;;13.18;61.67
929;BME280;451;47.988;7.842;2023-02-19T15:20:27;99525.69;;;13.11;61.89
929;BME280;451;47.988;7.842;2023-02-19T15:29:31;99512.31;;;12.71;63.88
929;BME280;451;47.988;7.842;2023-02-19T15:38:35;99515.06;;;12.95;64.00
929;BME280;451;47.988;7.842;2023-02-19T15:47:41;99531.53;;;12.89;64.95
929;BME280;451;47.988;7.842;2023-02-19T15:56:48;99538.47;;;12.90;63.54
929;BME280;451;47.988;7.842;2023-02-19T16:05:59;99551.59;;;12.82;65.68
929;BME280;451;47.988;7.842;2023-02-19T16:15:12;99503.75;;;12.77;65.63
929;BME280;451;47.988;7.842;2023-02-19T16:24:24;99574.31;;;12.67;66.61
929;BME280;451;47.988;7.842;2023-02-19T16:33:40;99593.75;;;12.66;67.42
929;BME280;451;47.988;7.842;2023-02-19T16:43:26;99579.47;;;12.50;68.06
929;BME280;451;47.988;7.842;2023-02-19T16:52:31;99597.13;;;12.32;68.59
929;BME280;451;47.988;7.842;2023-02-19T17:01:34;99607.84;;;12.13;69.58
929;BME280;451;47.988;7.842;2023-02-19T17:10:39;99598.19;;;12.39;69.40
929;BME280;451;47.988;7.842;2023-02-19T17:19:42;99584.25;;;11.86;71.93
929;BME280;451;47.988;7.842;2023-02-19T17:28:47;99594.56;;;11.69;73.81
929;BME280;451;47.988;7.842;2023-02-19T17:37:50;99604.72;;;11.64;74.59
929;BME280;451;47.988;7.842;2023-02-19T17:46:54;99601.03;;;11.57;74.73
929;BME280;451;47.988;7.842;2023-02-19T17:55:57;99577.31;;;11.40;76.11
929;BME280;451;47.988;7.842;2023-02-19T18:05:02;99607.09;;;11.40;77.12
929;BME280;451;47.988;7.842;2023-02-19T18:14:05;99613.28;;;11.76;75.05
929;BME280;451;47.988;7.842;2023-02-19T18:23:11;99606.88;;;11.51;76.40
929;BME280;451;47.988;7.842;2023-02-19T18:32:24;99595.69;;;11.49;75.10
929;BME280;451;47.988;7.842;2023-02-19T18:41:30;99610.22;;;11.53;77.33
929;BME280;451;47.988;7.842;2023-02-19T18:50:35;99609.03;;;11.65;77.34
929;BME280;451;47.988;7.842;2023-02-19T18:59:40;99607.88;;;11.78;75.55
929;BME280;451;47.988;7.842;2023-02-19T19:08:44;99645.22;;;11.63;75.07
929;BME280;451;47.988;7.842;2023-02-19T19:17:49;99638.84;;;11.39;76.93
929;BME280;451;47.988;7.842;2023-02-19T19:26:52;99653.69;;;11.57;74.42
929;BME280;451;47.988;7.842;2023-02-19T19:35:56;99655.81;;;11.54;74.06
929;BME280;451;47.988;7.842;2023-02-19T19:44:59;99669.00;;;11.44;75.06
929;BME280;451;47.988;7.842;2023-02-19T19:54:03;99680.97;;;11.66;75.34
929;BME280;451;47.988;7.842;2023-02-19T20:03:07;99706.56;;;11.83;74.04
929;BME280;451;47.988;7.842;2023-02-19T20:12:11;99712.38;;;11.87;74.31
929;BME280;451;47.988;7.842;2023-02-19T20:21:14;99711.88;;;11.74;74.58
929;BME280;451;47.988;7.842;2023-02-19T20:30:20;99710.28;;;11.53;75.76
929;BME280;451;47.988;7.842;2023-02-19T20:39:23;99706.50;;;11.28;77.29
929;BME280;451;47.988;7.842;2023-02-19T20:48:30;99722.19;;;11.57;76.58
929;BME280;451;47.988;7.842;2023-02-19T20:57:33;99725.31;;;11.80;76.35
929;BME280;451;47.988;7.842;2023-02-19T21:06:40;99691.38;;;11.67;76.64
929;BME280;451;47.988;7.842;2023-02-19T21:15:43;99702.09;;;11.19;79.73
929;BME280;451;47.988;7.842;2023-02-19T21:24:49;99693.09;;;11.12;79.17
929;BME280;451;47.988;7.842;2023-02-19T21:33:53;99691.44;;;11.21;78.54
929;BME280;451;47.988;7.842;2023-02-19T21:42:57;99700.69;;;11.25;78.75
929;BME280;451;47.988;7.842;2023-02-19T21:52:01;99707.13;;;10.93;80.55
929;BME280;451;47.988;7.842;2023-02-19T22:01:05;99724.22;;;10.80;79.75
929;BME280;451;47.988;7.842;2023-02-19T22:10:08;99716.47;;;10.78;78.10
929;BME280;451;47.988;7.842;2023-02-19T22:19:13;99725.56;;;11.03;77.84
929;BME280;451;47.988;7.842;2023-02-19T22:28:16;99706.00;;;11.06;77.38
929;BME280;451;47.988;7.842;2023-02-19T22:37:20;99710.63;;;10.84;77.22
929;BME280;451;47.988;7.842;2023-02-19T22:46:24;99700.00;;;10.57;78.66
929;BME280;451;47.988;7.842;2023-02-19T22:55:29;99714.00;;;10.29;80.99
929;BME280;451;47.988;7.842;2023-02-19T23:04:32;99729.91;;;10.18;82.57
929;BME280;451;47.988;7.842;2023-02-19T23:13:37;99738.47;;;10.39;80.43
929;BME280;451;47.988;7.842;2023-02-19T23:22:39;99746.38;;;10.29;79.97
929;BME280;451;47.988;7.842;2023-02-19T23:31:45;99760.91;;;10.43;78.93
929;BME280;451;47.988;7.842;2023-02-19T23:40:48;99755.38;;;10.36;79.64
929;BME280;451;47.988;7.842;2023-02-19T23:49:53;99767.72;;;10.05;81.37
929;BME280;451;47.988;7.842;2023-02-19T23:58:56;99775.06;;;9.71;82.89
